createdAt,value
2019-03-27T00:01:25.201Z,14.5
2019-03-27T00:03:39.260Z,14.7
2019-03-27T00:05:54.390Z,13.8
2019-03-27T00:08:08.397Z,17.700001
2019-03-27T00:10:23.889Z,14.8
2019-03-27T00:12:46.497Z,15.7
2019-03-27T00:15:11.830Z,13.9
2019-03-27T00:17:16.924Z,16.799999
2019-03-27T00:19:31.118Z,14.8
2019-03-27T00:21:45.201Z,15.2
2019-03-27T00:23:59.198Z,14.8
2019-03-27T00:26:15.120Z,13.2
2019-03-27T00:28:29.948Z,15.8
2019-03-27T00:30:45.003Z,16.299999
2019-03-27T00:33:00.846Z,14.5
2019-03-27T00:35:14.856Z,15.5
2019-03-27T00:37:30.811Z,17.4
2019-03-27T00:39:44.779Z,15.8
2019-03-27T00:42:00.818Z,17.299999
2019-03-27T00:44:19.413Z,15.7
2019-03-27T00:46:33.153Z,16.6
2019-03-27T00:48:47.184Z,16.700001
2019-03-27T00:51:02.411Z,14.9
2019-03-27T00:53:16.367Z,17
2019-03-27T00:55:31.823Z,15.2
2019-03-27T00:57:46.940Z,17.6
2019-03-27T01:00:00.939Z,13.9
2019-03-27T01:02:14.944Z,15.5
2019-03-27T01:04:29.102Z,16.700001
2019-03-27T01:06:44.459Z,13.3
2019-03-27T01:09:06.676Z,14.7
2019-03-27T01:11:20.645Z,15.7
2019-03-27T01:13:35.541Z,14.9
2019-03-27T01:15:48.614Z,15.8
2019-03-27T01:18:02.841Z,13.2
2019-03-27T01:20:16.821Z,18
2019-03-27T01:22:32.353Z,18.6
2019-03-27T01:24:55.326Z,12.6
2019-03-27T01:27:10.693Z,15
2019-03-27T01:29:32.298Z,14.9
2019-03-27T01:31:47.431Z,15.3
2019-03-27T01:34:02.562Z,14
2019-03-27T01:36:18.947Z,19.799999
2019-03-27T01:38:34.592Z,18.200001
2019-03-27T01:40:48.522Z,13.8
2019-03-27T01:43:02.488Z,21
2019-03-27T01:45:16.483Z,14
2019-03-27T01:47:31.931Z,17.6
2019-03-27T01:49:45.931Z,14.5
2019-03-27T01:52:00.001Z,14.4
2019-03-27T01:54:14.777Z,19.200001
2019-03-27T01:56:28.750Z,18.200001
2019-03-27T01:58:41.749Z,18.4
2019-03-27T02:00:56.342Z,16.200001
2019-03-27T02:03:10.309Z,16
2019-03-27T02:05:23.357Z,14.2
2019-03-27T02:07:47.690Z,16.4
2019-03-27T02:10:01.671Z,14.1
2019-03-27T02:12:16.386Z,18.1
2019-03-27T02:14:38.878Z,15.6
2019-03-27T02:16:54.266Z,15.6
2019-03-27T02:19:08.990Z,16.799999
2019-03-27T02:21:27.508Z,14.3
2019-03-27T02:23:53.426Z,15.7
2019-03-27T02:26:16.986Z,18.1
2019-03-27T02:28:31.663Z,19.9
2019-03-27T02:30:44.724Z,17.799999
2019-03-27T02:33:00.353Z,16.9
2019-03-27T02:35:13.668Z,16.200001
2019-03-27T02:37:27.623Z,16
2019-03-27T02:39:42.411Z,16.700001
2019-03-27T02:41:57.317Z,16.4
2019-03-27T02:44:13.947Z,14.2
2019-03-27T02:46:26.944Z,21.6
2019-03-27T02:48:40.933Z,20.9
2019-03-27T02:50:54.915Z,18.9
2019-03-27T02:53:10.352Z,16.700001
2019-03-27T02:55:25.099Z,16.5
2019-03-27T02:57:39.970Z,17.799999
2019-03-27T02:59:54.501Z,16.700001
2019-03-27T03:02:08.634Z,16.799999
2019-03-27T03:04:22.646Z,18.5
2019-03-27T03:06:36.825Z,17.5
2019-03-27T03:08:51.848Z,21.4
2019-03-27T03:11:08.740Z,17
2019-03-27T03:13:23.500Z,20.700001
2019-03-27T03:15:36.530Z,23.200001
2019-03-27T03:17:50.765Z,19.299999
2019-03-27T03:20:05.745Z,22.700001
2019-03-27T03:22:19.768Z,22.200001
2019-03-27T03:24:33.825Z,17.9
2019-03-27T03:26:50.720Z,17.4
2019-03-27T03:29:11.668Z,18
2019-03-27T03:31:26.122Z,19.700001
2019-03-27T03:33:50.172Z,18
2019-03-27T03:36:14.176Z,19.4
2019-03-27T03:38:30.379Z,24.200001
2019-03-27T03:40:44.628Z,15.8
2019-03-27T03:42:58.592Z,17.9
2019-03-27T03:45:12.635Z,17.1
2019-03-27T03:47:34.898Z,22.9
2019-03-27T03:49:48.815Z,20.4
2019-03-27T03:52:02.656Z,14.6
2019-03-27T03:54:16.507Z,21.200001
2019-03-27T03:56:30.348Z,17.1
2019-03-27T03:58:44.138Z,16.1
2019-03-27T04:00:58.025Z,23
2019-03-27T04:03:11.838Z,17.299999
2019-03-27T04:05:25.620Z,18.200001
2019-03-27T04:07:40.400Z,18
2019-03-27T04:09:54.400Z,20.9
2019-03-27T04:12:08.195Z,18.5
2019-03-27T04:14:22.047Z,17.700001
2019-03-27T04:16:35.850Z,15.6
2019-03-27T04:18:49.650Z,17.200001
2019-03-27T04:21:03.457Z,13.5
2019-03-27T04:23:17.298Z,16.5
2019-03-27T04:25:53.814Z,16
2019-03-27T04:27:46.108Z,14.2
2019-03-27T04:30:00.961Z,24.5
2019-03-27T04:32:14.756Z,21.700001
2019-03-27T04:34:28.544Z,16.4
2019-03-27T04:36:42.393Z,20.9
2019-03-27T04:38:56.173Z,19.4
2019-03-27T04:41:09.966Z,21.700001
2019-03-27T04:43:23.892Z,21.700001
2019-03-27T04:45:37.761Z,23.1
2019-03-27T04:47:51.571Z,25.6
2019-03-27T04:50:05.361Z,24.1
2019-03-27T04:52:19.390Z,20.700001
2019-03-27T04:54:33.349Z,21.5
2019-03-27T04:56:47.228Z,21.799999
2019-03-27T04:59:01.170Z,22.799999
2019-03-27T05:01:15.107Z,23.5
2019-03-27T05:03:29.098Z,21.200001
2019-03-27T05:05:43.015Z,18.700001
2019-03-27T05:07:56.901Z,18.200001
2019-03-27T05:10:10.862Z,19.4
2019-03-27T05:12:24.706Z,18.799999
2019-03-27T05:14:38.607Z,17.9
2019-03-27T05:16:52.592Z,20.9
2019-03-27T05:19:06.415Z,18.799999
2019-03-27T05:21:20.317Z,20.299999
2019-03-27T05:23:34.260Z,18.700001
2019-03-27T05:25:48.181Z,15.6
2019-03-27T05:28:02.119Z,21.4
2019-03-27T05:30:16.064Z,20.1
2019-03-27T05:32:29.975Z,22.6
2019-03-27T05:34:43.864Z,21.4
2019-03-27T05:36:57.795Z,20.4
2019-03-27T05:39:14.518Z,20.200001
2019-03-27T05:41:26.098Z,19.5
2019-03-27T05:43:40.122Z,18
2019-03-27T05:45:53.961Z,26.6
2019-03-27T05:48:07.896Z,18.700001
2019-03-27T05:50:21.746Z,26.1
2019-03-27T05:52:35.577Z,20.299999
2019-03-27T05:54:49.353Z,21.200001
2019-03-27T05:57:03.144Z,22.700001
2019-03-27T05:59:16.997Z,23.9
2019-03-27T06:01:30.919Z,24.299999
2019-03-27T06:03:44.904Z,26.9
2019-03-27T06:05:58.794Z,19.5
2019-03-27T06:08:12.679Z,20.5
2019-03-27T06:10:26.601Z,24.799999
2019-03-27T06:12:40.473Z,28
2019-03-27T06:14:54.410Z,24.700001
2019-03-27T06:17:08.302Z,27.4
2019-03-27T06:19:22.164Z,24.700001
2019-03-27T06:21:36.190Z,25.5
2019-03-27T06:23:50.043Z,19
2019-03-27T06:26:04.056Z,25.299999
2019-03-27T06:28:17.942Z,28.200001
2019-03-27T06:30:31.931Z,26
2019-03-27T06:32:45.830Z,24.799999
2019-03-27T06:34:59.745Z,25.4
2019-03-27T06:37:13.650Z,23.9
2019-03-27T06:39:27.568Z,25.5
2019-03-27T06:41:41.377Z,25.700001
2019-03-27T06:43:55.361Z,22.799999
2019-03-27T06:46:09.273Z,21
2019-03-27T06:48:26.310Z,21.6
2019-03-27T06:50:37.024Z,19
2019-03-27T06:52:50.936Z,24.1
2019-03-27T06:55:04.835Z,19.299999
2019-03-27T06:57:18.734Z,19.4
2019-03-27T06:59:32.571Z,20
2019-03-27T07:01:46.416Z,20.5
2019-03-27T07:04:10.162Z,20.9
2019-03-27T07:06:15.093Z,23.6
2019-03-27T07:08:28.969Z,22.6
2019-03-27T07:10:42.853Z,24.5
2019-03-27T07:12:56.682Z,21.799999
2019-03-27T07:14:12.616Z,0
2019-03-27T07:16:26.509Z,18.6
2019-03-27T07:18:40.725Z,23.6
2019-03-27T07:20:54.027Z,25.299999
2019-03-27T07:23:07.778Z,26.4
2019-03-27T07:25:21.628Z,27.4
2019-03-27T07:27:35.496Z,25.1
2019-03-27T07:29:50.282Z,25.1
2019-03-27T07:32:04.227Z,37.700001
2019-03-27T07:34:17.987Z,32.799999
2019-03-27T07:36:31.928Z,36.700001
2019-03-27T07:38:45.784Z,33.5
2019-03-27T07:40:59.653Z,32.299999
2019-03-27T07:43:13.653Z,33.5
2019-03-27T07:45:27.432Z,39.700001
2019-03-27T07:47:41.213Z,46.599998
2019-03-27T07:49:55.031Z,45.099998
2019-03-27T07:52:08.834Z,40.299999
2019-03-27T07:54:22.590Z,38.599998
2019-03-27T07:56:36.408Z,50.799999
2019-03-27T07:58:50.205Z,40.200001
2019-03-27T08:01:04.937Z,43.700001
2019-03-27T08:03:18.710Z,43.799999
2019-03-27T08:05:32.522Z,45.5
2019-03-27T08:07:46.292Z,41.099998
2019-03-27T08:10:00.377Z,42.599998
2019-03-27T08:12:13.994Z,44.200001
2019-03-27T08:14:28.793Z,47.900002
2019-03-27T08:16:49.770Z,43.900002
2019-03-27T08:19:07.612Z,48
2019-03-27T08:21:17.473Z,39.799999
2019-03-27T08:23:31.367Z,40.900002
2019-03-27T08:25:45.216Z,39.700001
2019-03-27T08:27:59.045Z,44.400002
2019-03-27T08:30:12.885Z,45.799999
2019-03-27T08:32:26.729Z,43.5
2019-03-27T08:34:40.491Z,34
2019-03-27T08:36:54.308Z,33.400002
2019-03-27T08:39:08.144Z,38.400002
2019-03-27T08:41:21.937Z,32.799999
2019-03-27T08:43:35.785Z,36
2019-03-27T08:45:49.605Z,39.599998
2019-03-27T08:48:03.406Z,39.299999
2019-03-27T08:50:17.329Z,34.400002
2019-03-27T08:52:31.678Z,31.799999
2019-03-27T08:54:45.506Z,28.6
2019-03-27T08:56:59.500Z,30.1
2019-03-27T08:59:13.423Z,30.5
2019-03-27T09:01:27.256Z,32.400002
2019-03-27T09:03:41.039Z,25.700001
2019-03-27T09:05:54.955Z,26.299999
2019-03-27T09:08:08.798Z,25.5
2019-03-27T09:10:22.580Z,29.200001
2019-03-27T09:12:36.413Z,27.1
2019-03-27T09:14:50.376Z,24.9
2019-03-27T09:17:04.903Z,25.4
2019-03-27T09:19:35.334Z,23.4
2019-03-27T09:20:41.450Z,0
2019-03-27T09:22:55.835Z,19
2019-03-27T09:25:09.738Z,16.1
2019-03-27T09:27:23.624Z,13
2019-03-27T09:29:37.504Z,19.299999
2019-03-27T09:31:51.495Z,15.3
2019-03-27T09:34:05.390Z,21
2019-03-27T09:36:19.305Z,16.4
2019-03-27T09:38:41.299Z,16.299999
2019-03-27T09:40:55.435Z,17.1
2019-03-27T09:43:09.322Z,15.6
2019-03-27T09:45:23.225Z,16.4
2019-03-27T09:47:44.781Z,18.1
2019-03-27T09:50:07.165Z,18.200001
2019-03-27T09:52:21.023Z,20.9
2019-03-27T09:54:34.901Z,20.1
2019-03-27T09:56:48.839Z,18.5
2019-03-27T09:59:28.202Z,18.1
2019-03-27T10:01:42.592Z,15.1
2019-03-27T10:03:56.544Z,14.8
2019-03-27T10:06:10.424Z,16.299999
2019-03-27T10:08:24.353Z,12.2
2019-03-27T10:10:38.273Z,15.6
2019-03-27T10:12:52.140Z,13.8
2019-03-27T10:15:06.059Z,12.8
2019-03-27T10:17:19.911Z,6.5
2019-03-27T10:19:34.067Z,6.7
2019-03-27T10:21:47.998Z,6.9
2019-03-27T10:24:01.803Z,9
2019-03-27T10:26:15.919Z,11.1
2019-03-27T10:28:29.799Z,15.3
2019-03-27T10:30:43.631Z,15.5
2019-03-27T10:32:57.639Z,14
2019-03-27T10:35:11.516Z,11.5
2019-03-27T10:37:25.379Z,9.8
2019-03-27T10:39:39.268Z,8.9
2019-03-27T10:41:53.181Z,8.6
2019-03-27T10:44:07.024Z,7.5
2019-03-27T10:46:20.877Z,7.4
2019-03-27T10:48:34.800Z,9.7
2019-03-27T10:50:49.673Z,11.5
2019-03-27T10:53:03.555Z,14.4
2019-03-27T10:55:17.461Z,11.1
2019-03-27T10:57:31.333Z,10.1
2019-03-27T10:59:45.178Z,13.6
2019-03-27T11:01:59.082Z,10.7
2019-03-27T11:04:12.961Z,10.9
2019-03-27T11:06:26.812Z,14.7
2019-03-27T11:08:40.707Z,20.799999
2019-03-27T11:10:54.580Z,17.5
2019-03-27T11:13:08.462Z,13.7
2019-03-27T11:15:22.368Z,14.5
2019-03-27T11:17:36.277Z,18.6
2019-03-27T11:19:50.135Z,15.5
2019-03-27T11:22:04.021Z,16.299999
2019-03-27T11:24:17.895Z,15.9
2019-03-27T11:26:31.815Z,16.200001
2019-03-27T11:28:45.689Z,14.6
2019-03-27T11:30:59.698Z,12.8
2019-03-27T11:33:13.541Z,17.1
2019-03-27T11:35:27.413Z,11.9
2019-03-27T11:37:41.293Z,13.8
2019-03-27T11:39:55.148Z,12.3
2019-03-27T11:42:09.011Z,13.3
2019-03-27T11:44:22.887Z,13.1
2019-03-27T11:46:36.748Z,11.6
2019-03-27T11:48:50.543Z,12.2
2019-03-27T11:51:04.425Z,12.9
2019-03-27T11:53:26.502Z,14.2
2019-03-27T11:55:47.948Z,12.8
2019-03-27T11:58:09.683Z,15.6
2019-03-27T11:59:18.904Z,0
2019-03-27T12:06:56.848Z,0
2019-03-27T13:00:24.282Z,0
2019-03-27T13:02:38.883Z,14.6
2019-03-27T13:04:52.757Z,14.9
2019-03-27T13:07:06.630Z,20.799999
2019-03-27T13:15:09.249Z,0
2019-03-27T13:17:23.114Z,15.1
2019-03-27T13:19:38.305Z,14.9
2019-03-27T13:21:52.651Z,15.3
2019-03-27T13:24:06.815Z,16.6
2019-03-27T13:26:20.741Z,16.299999
2019-03-27T13:28:47.735Z,17
2019-03-27T13:30:49.471Z,17.200001
2019-03-27T13:33:03.744Z,15.9
2019-03-27T13:35:18.056Z,19.5
2019-03-27T13:37:32.113Z,19.9
2019-03-27T13:39:45.949Z,17.799999
2019-03-27T13:41:59.731Z,21
2019-03-27T13:44:13.761Z,18.700001
2019-03-27T13:46:27.547Z,17
2019-03-27T13:48:41.342Z,16.299999
2019-03-27T13:50:55.108Z,20.9
2019-03-27T13:53:08.918Z,20.5
2019-03-27T13:55:23.706Z,16.799999
2019-03-27T13:57:37.474Z,16
2019-03-27T13:59:51.286Z,16.6
2019-03-27T14:02:05.061Z,15
2019-03-27T14:04:19.859Z,18.6
2019-03-27T14:06:33.714Z,13.2
2019-03-27T14:08:48.591Z,14.2
2019-03-27T14:11:02.441Z,12.7
2019-03-27T14:13:16.298Z,15.3
2019-03-27T14:15:30.180Z,15
2019-03-27T14:17:43.960Z,14.9
2019-03-27T14:19:57.838Z,12.4
2019-03-27T14:22:11.751Z,13.8
2019-03-27T14:24:25.615Z,14.5
2019-03-27T14:26:45.208Z,13.4
2019-03-27T14:28:53.331Z,14.5
2019-03-27T14:31:07.169Z,12.7
2019-03-27T14:33:21.226Z,14.3
2019-03-27T14:35:35.129Z,14.5
2019-03-27T14:37:48.900Z,16.1
2019-03-27T14:40:02.950Z,13.5
2019-03-27T14:42:17.795Z,16.200001
2019-03-27T14:44:31.612Z,14.9
2019-03-27T14:46:45.671Z,15.1
2019-03-27T14:48:59.650Z,14.6
2019-03-27T14:51:13.463Z,14.2
2019-03-27T14:53:27.288Z,11.9
2019-03-27T14:55:41.457Z,12.4
2019-03-27T14:57:55.339Z,14.6
2019-03-27T15:00:09.138Z,13.5
2019-03-27T15:02:25.643Z,13.6
2019-03-27T15:04:39.860Z,12.1
2019-03-27T15:06:53.701Z,11
2019-03-27T15:09:07.816Z,15.7
2019-03-27T15:11:21.612Z,11
2019-03-27T15:13:35.422Z,11.6
2019-03-27T15:15:49.241Z,13.7
2019-03-27T15:18:03.034Z,13.7
2019-03-27T15:20:16.780Z,14.5
2019-03-27T15:22:30.683Z,13.7
2019-03-27T15:24:44.467Z,12.1
2019-03-27T15:26:58.255Z,10.3
2019-03-27T15:29:12.023Z,14.2
2019-03-27T15:31:25.861Z,11.6
2019-03-27T15:33:39.642Z,14.9
2019-03-27T15:35:53.515Z,12.3
2019-03-27T15:38:07.306Z,11.9
2019-03-27T15:40:21.041Z,13.4
2019-03-27T15:42:34.818Z,12.7
2019-03-27T15:44:49.855Z,15.1
2019-03-27T15:47:02.423Z,13.2
2019-03-27T15:49:16.206Z,13.4
2019-03-27T15:51:30.038Z,15.1
2019-03-27T15:53:47.003Z,14.8
2019-03-27T15:55:57.575Z,14.1
2019-03-27T15:58:11.409Z,11.8
2019-03-27T16:00:25.188Z,13.3
2019-03-27T16:02:39.169Z,13.5
2019-03-27T16:04:52.936Z,13
2019-03-27T16:07:06.713Z,16.9
2019-03-27T16:09:20.771Z,12
2019-03-27T16:11:34.541Z,14
2019-03-27T16:13:48.323Z,14.2
2019-03-27T16:16:02.111Z,16.700001
2019-03-27T16:18:16.719Z,15.6
2019-03-27T16:20:29.684Z,15.8
2019-03-27T16:22:50.228Z,13
2019-03-27T16:24:58.189Z,14.7
2019-03-27T16:27:11.959Z,14.8
2019-03-27T16:29:25.719Z,14.3
2019-03-27T16:31:39.473Z,16.1
2019-03-27T16:33:53.236Z,19
2019-03-27T16:36:06.986Z,16.1
2019-03-27T16:38:20.769Z,13.8
2019-03-27T16:40:34.487Z,14.9
2019-03-27T16:42:48.273Z,14.1
2019-03-27T16:45:02.020Z,15.4
2019-03-27T16:47:15.753Z,17.799999
2019-03-27T16:49:29.499Z,16.4
2019-03-27T16:51:43.239Z,17.4
2019-03-27T16:53:57.055Z,17.200001
2019-03-27T16:56:10.899Z,17.9
2019-03-27T16:58:25.898Z,15
2019-03-27T17:00:40.325Z,14.5
2019-03-27T17:02:54.383Z,14.9
2019-03-27T17:05:08.443Z,15.7
2019-03-27T17:07:23.193Z,16.299999
2019-03-27T17:09:36.967Z,19.9
2019-03-27T17:11:50.744Z,13.5
2019-03-27T17:14:04.523Z,15.3
2019-03-27T17:16:18.312Z,13.8
2019-03-27T17:18:32.098Z,14.4
2019-03-27T17:20:45.860Z,15.4
2019-03-27T17:22:59.632Z,14.9
2019-03-27T17:25:14.385Z,14.8
2019-03-27T17:27:28.184Z,14.8
2019-03-27T17:29:41.995Z,11.9
2019-03-27T17:31:55.764Z,16.6
2019-03-27T17:34:09.527Z,13.2
2019-03-27T17:36:23.290Z,13.6
2019-03-27T17:38:37.038Z,15.1
2019-03-27T17:40:50.800Z,15.9
2019-03-27T17:43:04.564Z,13.6
2019-03-27T17:45:18.322Z,14.1
2019-03-27T17:47:32.107Z,11.4
2019-03-27T17:49:45.879Z,14
2019-03-27T17:51:59.642Z,11.2
2019-03-27T17:54:20.170Z,12.6
2019-03-27T17:56:28.096Z,10.7
2019-03-27T17:58:41.877Z,12.9
2019-03-27T18:00:55.678Z,10.4
2019-03-27T18:03:09.490Z,11.7
2019-03-27T18:05:23.326Z,11.3
2019-03-27T18:07:37.171Z,13.2
2019-03-27T18:09:51.049Z,12.9
2019-03-27T18:12:04.898Z,13.5
2019-03-27T18:14:18.771Z,12.3
2019-03-27T18:16:32.637Z,9.3
2019-03-27T18:18:46.508Z,10
2019-03-27T18:21:00.345Z,9.8
2019-03-27T18:23:14.207Z,10
2019-03-27T18:25:28.061Z,9.9
2019-03-27T18:27:41.876Z,8.6
2019-03-27T18:30:05.687Z,14.4
2019-03-27T18:32:20.363Z,10.9
2019-03-27T18:34:34.331Z,10.4
2019-03-27T18:36:48.423Z,12.5
2019-03-27T18:39:02.483Z,12.4
2019-03-27T18:41:16.626Z,13.1
2019-03-27T18:43:30.622Z,13.3
2019-03-27T18:45:44.861Z,12.1
2019-03-27T18:47:58.770Z,12.3
2019-03-27T18:50:12.765Z,12
2019-03-27T18:52:26.635Z,15.5
2019-03-27T18:54:40.685Z,14
2019-03-27T18:56:54.729Z,13.4
2019-03-27T18:59:08.663Z,12.9
2019-03-27T19:01:22.618Z,11.6
2019-03-27T19:03:36.518Z,10.8
2019-03-27T19:05:50.352Z,10.2
2019-03-27T19:08:04.311Z,12.4
2019-03-27T19:10:18.172Z,12.4
2019-03-27T19:12:32.432Z,13.4
2019-03-27T19:14:47.342Z,16.6
2019-03-27T19:17:01.189Z,13.5
2019-03-27T19:19:15.554Z,13.5
2019-03-27T19:21:29.599Z,15.9
2019-03-27T19:23:43.415Z,14.2
2019-03-27T19:25:57.551Z,14.1
2019-03-27T19:28:11.469Z,15.8
2019-03-27T19:30:25.449Z,14.6
2019-03-27T19:32:39.421Z,16.799999
2019-03-27T19:34:53.436Z,19.5
2019-03-27T19:37:07.367Z,17.9
2019-03-27T19:39:21.371Z,16.700001
2019-03-27T19:41:35.239Z,18.299999
2019-03-27T19:43:50.111Z,14.8
2019-03-27T19:46:03.973Z,14.1
2019-03-27T19:48:17.916Z,14.7
2019-03-27T19:50:31.871Z,16.299999
2019-03-27T19:52:45.733Z,24.1
2019-03-27T19:54:59.610Z,21.700001
2019-03-27T19:57:13.586Z,17.1
2019-03-27T19:59:27.528Z,17.700001
2019-03-27T20:01:41.328Z,15.5
2019-03-27T20:03:55.258Z,16.5
2019-03-27T20:06:09.073Z,17.299999
2019-03-27T20:08:22.917Z,15.8
2019-03-27T20:10:36.818Z,17.1
2019-03-27T20:12:50.698Z,14
2019-03-27T20:15:11.535Z,14.1
2019-03-27T20:17:19.628Z,14.5
2019-03-27T20:19:33.504Z,17.200001
2019-03-27T20:21:47.494Z,14
2019-03-27T20:24:01.259Z,12.3
2019-03-27T20:26:15.007Z,14.9
2019-03-27T20:28:28.803Z,15.9
2019-03-27T20:30:42.598Z,12.8
2019-03-27T20:32:56.375Z,14.1
2019-03-27T20:35:10.153Z,10.6
2019-03-27T20:37:23.912Z,13.2
2019-03-27T20:39:37.659Z,11.6
2019-03-27T20:41:52.429Z,11.9
2019-03-27T20:44:06.219Z,14
2019-03-27T20:46:25.344Z,11.7
2019-03-27T20:48:34.725Z,13.2
2019-03-27T20:50:49.483Z,11.4
2019-03-27T20:53:03.314Z,17.299999
2019-03-27T20:55:29.520Z,14.9
2019-03-27T20:57:31.859Z,15.7
2019-03-27T20:59:45.643Z,13.5
2019-03-27T21:01:59.428Z,12.7
2019-03-27T21:04:13.208Z,13.6
2019-03-27T21:06:26.999Z,14.2
2019-03-27T21:08:40.847Z,13.6
2019-03-27T21:10:54.627Z,14.1
2019-03-27T21:13:08.390Z,12.9
2019-03-27T21:15:22.177Z,13.3
2019-03-27T21:17:35.941Z,13.7
2019-03-27T21:19:49.730Z,15.5
2019-03-27T21:22:04.460Z,18.299999
2019-03-27T21:24:18.229Z,12.8
2019-03-27T21:26:32.013Z,14.3
2019-03-27T21:28:45.804Z,14.6
2019-03-27T21:30:59.556Z,11.6
2019-03-27T21:33:13.302Z,12.9
2019-03-27T21:35:27.112Z,14.7
2019-03-27T21:37:40.882Z,15.8
2019-03-27T21:39:54.848Z,15.7
2019-03-27T21:42:08.617Z,13.5
2019-03-27T21:44:22.416Z,14.7
2019-03-27T21:46:36.465Z,16.4
2019-03-27T21:48:50.246Z,13.8
2019-03-27T21:51:03.996Z,17
2019-03-27T21:53:17.957Z,17.4
2019-03-27T21:55:42.095Z,15.8
2019-03-27T21:57:46.423Z,16.700001
2019-03-27T22:00:00.811Z,16.299999
2019-03-27T22:02:14.181Z,16.700001
2019-03-27T22:04:28.125Z,17.9
2019-03-27T22:06:42.088Z,17.6
2019-03-27T22:08:55.861Z,17.9
2019-03-27T22:11:09.634Z,14.9
2019-03-27T22:13:24.667Z,17
2019-03-27T22:15:38.454Z,13.8
2019-03-27T22:17:52.206Z,15.8
2019-03-27T22:20:05.968Z,17.200001
2019-03-27T22:22:19.742Z,17.700001
2019-03-27T22:24:34.478Z,14.9
2019-03-27T22:26:48.243Z,15.4
2019-03-27T22:29:02.010Z,17.200001
2019-03-27T22:31:15.805Z,15.2
2019-03-27T22:33:29.547Z,17.6
2019-03-27T22:35:43.348Z,17.299999
2019-03-27T22:37:57.070Z,16.4
2019-03-27T22:40:10.828Z,17.299999
2019-03-27T22:42:24.639Z,17.200001
2019-03-27T22:44:38.377Z,16.9
2019-03-27T22:46:52.160Z,16.799999
2019-03-27T22:49:05.941Z,14.2
2019-03-27T22:51:19.723Z,19
2019-03-27T22:53:33.481Z,16.700001
2019-03-27T22:55:49.961Z,15.7
2019-03-27T22:58:00.990Z,14.4
2019-03-27T23:00:14.745Z,15.6
2019-03-27T23:02:28.549Z,16.200001
2019-03-27T23:04:42.316Z,16.200001
2019-03-27T23:06:56.081Z,16.1
2019-03-27T23:09:09.845Z,20.6
2019-03-27T23:11:23.631Z,16.5
2019-03-27T23:13:37.399Z,16.1
2019-03-27T23:15:51.159Z,15.2
2019-03-27T23:18:04.942Z,17.200001
2019-03-27T23:20:18.698Z,16.200001
2019-03-27T23:22:32.483Z,15.7
2019-03-27T23:24:46.250Z,15.3
2019-03-27T23:27:01.004Z,14.6
2019-03-27T23:29:14.791Z,16.5
2019-03-27T23:31:28.607Z,17.299999
2019-03-27T23:33:42.383Z,19.299999
2019-03-27T23:35:56.150Z,18
2019-03-27T23:38:09.926Z,18.700001
2019-03-27T23:40:23.673Z,16.200001
2019-03-27T23:42:37.478Z,15.1
2019-03-27T23:44:51.220Z,17.299999
2019-03-27T23:47:05.285Z,17.4
2019-03-27T23:49:18.760Z,16.1
2019-03-27T23:51:32.527Z,15.8
2019-03-27T23:53:46.300Z,18
2019-03-27T23:56:00.058Z,17.4
2019-03-27T23:58:14.815Z,18.5
